createdAt,value
2018-09-02T00:01:01.322Z,4.47
2018-09-02T00:03:30.451Z,4.00
2018-09-02T00:05:59.214Z,4.00
2018-09-02T00:08:27.999Z,4.60
2018-09-02T00:10:57.091Z,5.13
2018-09-02T00:13:25.863Z,4.37
2018-09-02T00:15:54.769Z,3.90
2018-09-02T00:18:23.492Z,3.90
2018-09-02T00:20:52.253Z,4.60
2018-09-02T00:23:21.045Z,3.80
2018-09-02T00:25:49.804Z,4.53
2018-09-02T00:28:18.562Z,5.03
2018-09-02T00:30:47.392Z,4.97
2018-09-02T00:33:16.269Z,4.40
2018-09-02T00:35:45.029Z,4.77
2018-09-02T00:38:13.777Z,4.97
2018-09-02T00:40:42.567Z,5.57
2018-09-02T00:43:11.365Z,4.57
2018-09-02T00:45:40.182Z,4.90
2018-09-02T00:48:09.028Z,4.93
2018-09-02T00:50:38.181Z,5.00
2018-09-02T00:53:06.908Z,5.63
2018-09-02T00:55:35.700Z,5.10
2018-09-02T00:58:04.653Z,4.50
2018-09-02T01:00:33.505Z,5.67
2018-09-02T01:03:02.291Z,6.07
2018-09-02T01:05:31.053Z,5.97
2018-09-02T01:07:59.944Z,6.30
2018-09-02T01:10:28.700Z,6.10
2018-09-02T01:12:57.450Z,5.10
2018-09-02T01:15:26.292Z,6.73
2018-09-02T01:17:55.067Z,6.40
2018-09-02T01:20:23.939Z,6.13
2018-09-02T01:22:52.741Z,6.30
2018-09-02T01:25:21.615Z,6.07
2018-09-02T01:27:50.418Z,7.00
2018-09-02T01:30:19.185Z,6.40
2018-09-02T01:32:47.992Z,6.67
2018-09-02T01:35:22.146Z,7.00
2018-09-02T01:37:50.935Z,6.83
2018-09-02T01:40:19.745Z,6.47
2018-09-02T01:42:48.555Z,6.50
2018-09-02T01:45:17.354Z,6.90
2018-09-02T01:47:46.135Z,6.60
2018-09-02T01:50:17.187Z,6.90
2018-09-02T01:52:45.976Z,7.60
2018-09-02T01:55:14.790Z,6.80
2018-09-02T01:57:43.545Z,6.90
2018-09-02T02:00:12.410Z,6.60
2018-09-02T02:02:41.201Z,6.67
2018-09-02T02:05:10.013Z,7.10
2018-09-02T02:07:38.795Z,7.20
2018-09-02T02:10:08.024Z,7.33
2018-09-02T02:12:36.790Z,7.97
2018-09-02T02:15:05.630Z,7.83
2018-09-02T02:17:34.421Z,9.03
2018-09-02T02:20:03.185Z,8.60
2018-09-02T02:22:32.345Z,7.73
2018-09-02T02:25:01.386Z,7.43
2018-09-02T02:27:30.208Z,9.17
2018-09-02T02:29:59.459Z,8.13
2018-09-02T02:32:28.212Z,8.20
2018-09-02T02:34:57.015Z,9.40
2018-09-02T02:37:25.810Z,7.77
2018-09-02T02:39:54.573Z,7.77
2018-09-02T02:42:23.374Z,9.17
2018-09-02T02:44:52.201Z,9.00
2018-09-02T02:47:20.975Z,8.60
2018-09-02T02:49:49.712Z,8.60
2018-09-02T02:52:18.504Z,8.47
2018-09-02T02:54:47.326Z,8.23
2018-09-02T02:57:16.076Z,8.50
2018-09-02T02:59:44.889Z,9.00
2018-09-02T03:02:13.697Z,8.50
2018-09-02T03:04:42.469Z,9.30
2018-09-02T03:07:12.169Z,11.00
2018-09-02T03:09:40.924Z,9.67
2018-09-02T03:12:10.524Z,9.60
2018-09-02T03:14:39.413Z,9.83
2018-09-02T03:17:08.231Z,9.30
2018-09-02T03:19:36.980Z,9.83
2018-09-02T03:22:05.782Z,10.30
2018-09-02T03:24:34.556Z,11.90
2018-09-02T03:27:03.354Z,11.87
2018-09-02T03:29:32.158Z,10.90
2018-09-02T03:32:00.981Z,10.80
2018-09-02T03:34:29.760Z,10.70
2018-09-02T03:36:58.534Z,11.70
2018-09-02T03:39:27.307Z,10.87
2018-09-02T03:41:56.094Z,11.77
2018-09-02T03:44:28.128Z,11.03
2018-09-02T03:47:30.353Z,11.70
2018-09-02T03:50:02.379Z,12.27
2018-09-02T03:52:32.823Z,12.37
2018-09-02T03:55:07.714Z,13.40
2018-09-02T03:57:43.879Z,12.80
2018-09-02T04:00:17.633Z,12.83
2018-09-02T04:03:07.864Z,11.43
2018-09-02T04:05:39.141Z,11.20
2018-09-02T04:08:15.330Z,12.40
2018-09-02T04:10:48.565Z,12.87
2018-09-02T04:13:35.010Z,11.80
2018-09-02T04:16:14.765Z,13.33
2018-09-02T04:18:54.536Z,13.10
2018-09-02T04:21:56.590Z,14.80
2018-09-02T04:24:33.064Z,14.50
2018-09-02T04:36:33.282Z,12.40
2018-09-02T04:39:27.161Z,14.50
2018-09-02T04:42:26.758Z,14.30
2018-09-02T04:45:03.249Z,13.83
2018-09-02T04:47:57.315Z,14.30
2018-09-02T04:50:33.946Z,14.30
2018-09-02T04:53:31.603Z,14.00
2018-09-02T04:56:10.182Z,13.23
2018-09-02T04:58:47.882Z,14.50
2018-09-02T05:01:24.582Z,14.20
2018-09-02T05:04:02.692Z,13.03
2018-09-02T05:06:40.290Z,12.53
2018-09-02T05:09:19.359Z,13.33
2018-09-02T05:11:56.585Z,12.90
2018-09-02T05:14:33.608Z,12.60
2018-09-02T05:17:11.563Z,13.80
2018-09-02T05:19:49.697Z,15.47
2018-09-02T05:22:27.549Z,12.93
2018-09-02T05:25:04.489Z,13.17
2018-09-02T05:27:42.347Z,12.97
2018-09-02T05:30:20.411Z,12.00
2018-09-02T05:32:58.770Z,11.27
2018-09-02T05:35:35.557Z,11.50
2018-09-02T05:38:08.984Z,10.27
2018-09-02T05:40:41.119Z,10.23
2018-09-02T05:43:13.565Z,9.57
2018-09-02T05:45:45.638Z,8.80
2018-09-02T05:48:17.642Z,9.97
2018-09-02T05:50:49.680Z,9.57
2018-09-02T05:53:20.183Z,10.70
2018-09-02T05:55:55.219Z,9.17
2018-09-02T05:58:26.230Z,10.83
2018-09-02T06:00:58.552Z,11.23
2018-09-02T06:03:30.305Z,10.20
2018-09-02T06:06:01.195Z,12.17
2018-09-02T06:08:32.116Z,11.47
2018-09-02T06:11:03.392Z,10.50
2018-09-02T06:13:34.421Z,10.97
2018-09-02T06:16:05.873Z,10.17
2018-09-02T06:18:50.402Z,9.53
2018-09-02T06:21:24.489Z,9.80
2018-09-02T06:23:58.811Z,11.17
2018-09-02T06:26:33.100Z,11.83
2018-09-02T06:29:03.956Z,10.80
2018-09-02T06:31:36.900Z,11.10
2018-09-02T06:34:05.850Z,9.60
2018-09-02T06:36:34.644Z,11.40
2018-09-02T06:39:04.452Z,11.70
2018-09-02T06:41:33.267Z,11.47
2018-09-02T06:44:02.072Z,12.00
2018-09-02T06:46:30.862Z,11.97
2018-09-02T06:48:59.777Z,10.23
2018-09-02T06:51:28.521Z,11.20
2018-09-02T06:53:57.309Z,10.20
2018-09-02T06:56:27.172Z,10.80
2018-09-02T06:58:56.880Z,8.73
2018-09-02T07:01:26.248Z,9.43
2018-09-02T07:03:55.675Z,9.70
2018-09-02T07:06:24.708Z,9.43
2018-09-02T07:08:53.634Z,9.87
2018-09-02T07:11:22.484Z,8.83
2018-09-02T07:13:51.301Z,10.00
2018-09-02T07:16:20.178Z,9.00
2018-09-02T07:18:48.996Z,9.43
2018-09-02T07:21:19.306Z,9.57
2018-09-02T07:23:48.048Z,8.73
2018-09-02T07:26:17.005Z,8.63
2018-09-02T07:28:46.446Z,9.80
2018-09-02T07:31:17.045Z,9.10
2018-09-02T07:33:46.957Z,9.00
2018-09-02T07:36:20.427Z,9.90
2018-09-02T07:38:50.348Z,9.83
2018-09-02T07:41:19.441Z,9.53
2018-09-02T07:43:49.469Z,10.80
2018-09-02T07:46:19.896Z,10.83
2018-09-02T07:48:49.735Z,10.40
2018-09-02T07:51:19.571Z,10.30
2018-09-02T07:53:49.039Z,11.50
2018-09-02T07:56:17.913Z,10.77
2018-09-02T07:58:46.704Z,9.43
2018-09-02T08:01:17.995Z,10.00
2018-09-02T08:03:47.215Z,9.60
2018-09-02T08:06:16.530Z,9.40
2018-09-02T08:08:46.170Z,9.70
2018-09-02T08:11:15.018Z,9.87
2018-09-02T08:13:43.861Z,9.10
2018-09-02T08:16:18.445Z,9.23
2018-09-02T08:18:48.637Z,9.10
2018-09-02T08:21:18.129Z,10.03
2018-09-02T08:23:48.074Z,10.03
2018-09-02T08:26:17.164Z,10.70
2018-09-02T08:29:00.835Z,8.43
2018-09-02T08:31:29.671Z,9.87
2018-09-02T08:33:59.634Z,8.00
2018-09-02T08:36:29.932Z,7.67
2018-09-02T08:38:59.704Z,7.93
2018-09-02T08:41:29.645Z,7.07
2018-09-02T08:43:58.510Z,8.03
2018-09-02T08:46:29.139Z,7.53
2018-09-02T08:48:57.971Z,6.93
2018-09-02T08:51:28.231Z,6.83
2018-09-02T08:53:57.516Z,6.20
2018-09-02T08:56:26.970Z,6.10
2018-09-02T08:58:57.514Z,5.80
2018-09-02T09:01:26.361Z,6.83
2018-09-02T09:03:57.530Z,5.80
2018-09-02T09:06:28.017Z,6.23
2018-09-02T09:08:58.452Z,5.83
2018-09-02T09:11:29.932Z,4.73
2018-09-02T09:14:00.549Z,4.70
2018-09-02T09:16:31.569Z,5.93
2018-09-02T09:19:02.199Z,4.67
2018-09-02T09:21:31.005Z,4.27
2018-09-02T09:23:59.873Z,4.23
2018-09-02T09:26:28.623Z,5.33
2018-09-02T09:28:57.670Z,5.00
2018-09-02T09:31:26.518Z,4.63
2018-09-02T09:33:55.282Z,3.77
2018-09-02T09:36:24.104Z,4.10
2018-09-02T09:38:52.878Z,3.80
2018-09-02T09:41:21.701Z,3.87
2018-09-02T09:43:50.478Z,4.20
2018-09-02T09:46:20.215Z,3.97
2018-09-02T09:48:49.033Z,3.60
2018-09-02T09:51:17.835Z,4.30
2018-09-02T09:53:46.616Z,5.47
2018-09-02T09:56:15.419Z,3.97
2018-09-02T09:58:44.179Z,3.90
2018-09-02T10:01:12.994Z,3.70
2018-09-02T10:03:41.827Z,3.23
2018-09-02T10:06:10.611Z,3.37
2018-09-02T10:08:39.423Z,3.43
2018-09-02T10:11:08.200Z,3.87
2018-09-02T10:13:37.031Z,3.70
2018-09-02T10:16:06.630Z,3.73
2018-09-02T10:18:35.522Z,3.43
2018-09-02T10:21:04.377Z,2.60
2018-09-02T10:23:33.148Z,2.57
2018-09-02T10:26:02.000Z,2.50
2018-09-02T10:28:30.770Z,2.30
2018-09-02T10:30:59.569Z,2.47
2018-09-02T10:33:28.873Z,2.30
2018-09-02T10:35:57.581Z,2.07
2018-09-02T10:38:26.455Z,2.43
2018-09-02T10:40:55.355Z,2.50
2018-09-02T10:43:24.111Z,2.33
2018-09-02T10:45:52.957Z,2.27
2018-09-02T10:48:28.410Z,3.60
2018-09-02T10:50:57.181Z,2.80
2018-09-02T10:53:25.937Z,2.73
2018-09-02T10:55:54.775Z,1.93
2018-09-02T10:58:23.512Z,1.70
2018-09-02T11:00:52.324Z,1.93
2018-09-02T11:03:23.614Z,2.10
2018-09-02T11:05:55.101Z,1.70
2018-09-02T11:08:24.036Z,2.17
2018-09-02T11:10:52.851Z,2.07
2018-09-02T11:13:22.977Z,1.87
2018-09-02T11:15:51.861Z,4.00
2018-09-02T11:18:20.713Z,3.00
2018-09-02T11:20:49.574Z,2.10
2018-09-02T11:23:18.718Z,2.30
2018-09-02T11:25:48.917Z,2.07
2018-09-02T11:28:17.717Z,2.23
2018-09-02T11:30:47.489Z,2.77
2018-09-02T11:33:17.800Z,1.97
2018-09-02T11:35:46.710Z,2.10
2018-09-02T11:38:16.048Z,1.67
2018-09-02T11:40:44.864Z,2.10
2018-09-02T11:43:13.662Z,2.03
2018-09-02T11:45:44.096Z,1.90
2018-09-02T11:48:14.241Z,1.63
2018-09-02T11:50:44.715Z,2.20
2018-09-02T11:53:13.531Z,1.80
2018-09-02T11:55:43.100Z,2.17
2018-09-02T11:58:11.907Z,1.97
2018-09-02T12:00:41.450Z,2.03
2018-09-02T12:03:10.994Z,2.10
2018-09-02T12:05:40.491Z,1.70
2018-09-02T12:08:09.212Z,2.60
2018-09-02T12:10:40.107Z,1.83
2018-09-02T12:13:10.360Z,2.30
2018-09-02T12:15:39.333Z,1.83
2018-09-02T12:18:08.187Z,2.13
2018-09-02T12:20:37.061Z,1.90
2018-09-02T12:23:05.841Z,1.87
2018-09-02T12:25:36.482Z,1.93
2018-09-02T12:28:05.394Z,2.00
2018-09-02T12:30:36.653Z,2.23
2018-09-02T12:33:05.494Z,1.70
2018-09-02T12:35:34.405Z,2.07
2018-09-02T12:38:05.609Z,2.03
2018-09-02T12:40:39.090Z,1.97
2018-09-02T12:43:08.281Z,1.97
2018-09-02T12:45:37.170Z,1.60
2018-09-02T12:48:06.237Z,1.90
2018-09-02T12:50:34.999Z,2.07
2018-09-02T12:53:05.599Z,2.07
2018-09-02T12:55:35.977Z,1.77
2018-09-02T12:58:04.894Z,2.07
2018-09-02T13:00:34.612Z,2.13
2018-09-02T13:03:05.138Z,2.07
2018-09-02T13:05:33.904Z,2.03
2018-09-02T13:08:05.545Z,2.30
2018-09-02T13:10:34.480Z,2.00
2018-09-02T13:13:03.887Z,1.80
2018-09-02T13:15:33.725Z,2.10
2018-09-02T13:18:02.921Z,2.03
2018-09-02T13:20:31.858Z,1.70
2018-09-02T13:23:00.684Z,2.30
2018-09-02T13:25:29.476Z,1.83
2018-09-02T13:27:58.896Z,1.87
2018-09-02T13:30:27.716Z,2.07
2018-09-02T13:32:56.540Z,2.20
2018-09-02T13:35:27.691Z,1.30
2018-09-02T13:37:56.550Z,2.23
2018-09-02T13:40:25.424Z,1.80
2018-09-02T13:42:54.253Z,1.40
2018-09-02T13:45:23.126Z,2.00
2018-09-02T13:47:51.882Z,1.87
2018-09-02T13:50:20.754Z,1.53
2018-09-02T13:52:49.520Z,1.90
2018-09-02T13:55:18.294Z,2.00
2018-09-02T13:57:47.086Z,1.30
2018-09-02T14:00:15.860Z,1.90
2018-09-02T14:02:45.094Z,1.77
2018-09-02T14:05:13.896Z,2.30
2018-09-02T14:07:42.734Z,1.70
2018-09-02T14:10:11.513Z,2.10
2018-09-02T14:12:40.391Z,1.80
2018-09-02T14:15:09.413Z,1.90
2018-09-02T14:17:38.242Z,1.60
2018-09-02T14:20:10.163Z,1.73
2018-09-02T14:22:41.092Z,1.73
2018-09-02T14:25:10.235Z,1.80
2018-09-02T14:27:40.322Z,2.30
2018-09-02T14:30:09.191Z,2.10
2018-09-02T14:32:39.124Z,1.43
2018-09-02T14:35:08.793Z,2.10
2018-09-02T14:37:43.431Z,1.77
2018-09-02T14:40:15.016Z,1.70
2018-09-02T14:42:45.117Z,1.70
2018-09-02T14:45:15.255Z,1.73
2018-09-02T14:47:45.377Z,2.30
2018-09-02T14:50:15.808Z,2.03
2018-09-02T14:52:44.605Z,2.00
2018-09-02T14:55:15.148Z,1.67
2018-09-02T14:57:45.565Z,2.03
2018-09-02T15:00:16.878Z,1.83
2018-09-02T15:02:46.770Z,1.50
2018-09-02T15:05:17.638Z,1.87
2018-09-02T15:07:48.291Z,2.37
2018-09-02T15:10:17.954Z,1.70
2018-09-02T15:12:46.813Z,1.80
2018-09-02T15:15:15.611Z,1.83
2018-09-02T15:17:44.368Z,1.87
2018-09-02T15:20:19.800Z,2.00
2018-09-02T15:22:48.754Z,1.77
2018-09-02T15:25:17.815Z,1.67
2018-09-02T15:27:54.563Z,2.20
2018-09-02T15:30:24.197Z,1.77
2018-09-02T15:32:54.440Z,1.57
2018-09-02T15:35:24.798Z,1.63
2018-09-02T15:37:54.547Z,1.93
2018-09-02T15:40:25.154Z,1.93
2018-09-02T15:43:01.918Z,1.60
2018-09-02T15:45:30.900Z,1.90
2018-09-02T15:48:00.120Z,2.10
2018-09-02T15:50:30.319Z,2.43
2018-09-02T15:52:59.594Z,1.90
2018-09-02T15:55:31.339Z,2.50
2018-09-02T15:58:00.268Z,2.23
2018-09-02T16:00:29.098Z,2.80
2018-09-02T16:02:57.884Z,2.17
2018-09-02T16:05:26.764Z,2.07
2018-09-02T16:07:55.795Z,2.13
2018-09-02T16:10:24.821Z,2.47
2018-09-02T16:12:54.077Z,2.00
2018-09-02T16:15:23.278Z,2.40
2018-09-02T16:17:52.132Z,2.30
2018-09-02T16:20:20.989Z,2.00
2018-09-02T16:22:49.964Z,2.70
2018-09-02T16:25:18.756Z,2.73
2018-09-02T16:27:47.544Z,2.23
2018-09-02T16:30:16.405Z,1.83
2018-09-02T16:32:45.305Z,2.40
2018-09-02T16:35:14.057Z,2.27
2018-09-02T16:37:42.887Z,2.43
2018-09-02T16:40:11.700Z,2.20
2018-09-02T16:42:40.516Z,2.73
2018-09-02T16:45:09.356Z,2.10
2018-09-02T16:47:38.173Z,2.00
2018-09-02T16:50:07.266Z,1.90
2018-09-02T16:52:36.016Z,2.20
2018-09-02T16:55:06.819Z,2.00
2018-09-02T16:57:39.476Z,2.40
2018-09-02T17:00:10.243Z,2.47
2018-09-02T17:02:39.150Z,2.30
2018-09-02T17:05:16.720Z,2.03
2018-09-02T17:07:45.655Z,2.13
2018-09-02T17:10:16.497Z,2.10
2018-09-02T17:12:45.446Z,2.67
2018-09-02T17:15:14.208Z,2.53
2018-09-02T17:17:44.686Z,3.33
2018-09-02T17:20:17.774Z,2.07
2018-09-02T17:22:46.922Z,2.53
2018-09-02T17:25:15.797Z,2.57
2018-09-02T17:27:46.557Z,2.03
2018-09-02T17:30:15.812Z,2.50
2018-09-02T17:32:45.020Z,2.67
2018-09-02T17:35:16.051Z,2.60
2018-09-02T17:37:44.922Z,2.70
2018-09-02T17:40:13.781Z,2.07
2018-09-02T17:42:43.540Z,2.20
2018-09-02T17:45:12.528Z,2.53
2018-09-02T17:47:41.363Z,2.33
2018-09-02T17:50:10.172Z,2.60
2018-09-02T17:52:40.724Z,2.60
2018-09-02T17:55:10.182Z,2.40
2018-09-02T17:57:42.211Z,2.47
2018-09-02T18:00:14.748Z,2.37
2018-09-02T18:02:43.731Z,2.70
2018-09-02T18:05:12.553Z,2.23
2018-09-02T18:07:41.423Z,2.63
2018-09-02T18:10:10.215Z,2.00
2018-09-02T18:12:39.040Z,2.30
2018-09-02T18:15:07.973Z,2.50
2018-09-02T18:17:36.833Z,2.70
2018-09-02T18:20:07.490Z,2.60
2018-09-02T18:22:38.066Z,2.43
2018-09-02T18:25:08.129Z,2.60
2018-09-02T18:27:40.472Z,3.10
2018-09-02T18:30:09.424Z,2.07
2018-09-02T18:32:38.287Z,3.00
2018-09-02T18:35:07.074Z,2.70
2018-09-02T18:37:36.088Z,3.37
2018-09-02T18:40:06.216Z,3.20
2018-09-02T18:42:36.305Z,3.20
2018-09-02T18:45:06.217Z,2.90
2018-09-02T18:47:35.455Z,3.00
2018-09-02T18:50:04.841Z,2.63
2018-09-02T18:52:34.419Z,2.57
2018-09-02T18:55:03.709Z,2.57
2018-09-02T18:57:33.680Z,3.00
2018-09-02T19:00:03.837Z,2.80
2018-09-02T19:02:33.781Z,2.80
2018-09-02T19:05:03.920Z,3.10
2018-09-02T19:07:33.900Z,3.23
2018-09-02T19:10:04.684Z,2.47
2018-09-02T19:12:34.658Z,2.83
2018-09-02T19:15:04.237Z,3.63
2018-09-02T19:17:33.750Z,3.07
2018-09-02T19:20:03.539Z,3.63
2018-09-02T19:22:33.684Z,3.40
2018-09-02T19:25:03.075Z,2.90
2018-09-02T19:27:33.910Z,2.83
2018-09-02T19:30:04.599Z,2.83
2018-09-02T19:32:34.836Z,3.20
2018-09-02T19:35:05.926Z,3.20
2018-09-02T19:37:36.186Z,2.93
2018-09-02T19:40:05.872Z,3.10
2018-09-02T19:42:36.110Z,3.17
2018-09-02T19:45:05.600Z,3.53
2018-09-02T19:47:34.890Z,3.60
2018-09-02T19:50:04.500Z,3.53
2018-09-02T19:52:33.336Z,3.80
2018-09-02T19:55:02.182Z,3.57
2018-09-02T19:57:31.031Z,3.60
2018-09-02T19:59:59.897Z,3.77
2018-09-02T20:02:29.275Z,4.00
2018-09-02T20:04:58.783Z,3.00
2018-09-02T20:07:28.397Z,4.40
2018-09-02T20:09:58.137Z,3.20
2018-09-02T20:12:27.365Z,4.80
2018-09-02T20:14:56.132Z,4.47
2018-09-02T20:17:24.938Z,3.97
2018-09-02T20:19:53.756Z,3.90
2018-09-02T20:22:22.542Z,4.60
2018-09-02T20:24:52.196Z,4.13
2018-09-02T20:27:21.037Z,4.10
2018-09-02T20:29:49.854Z,4.10
2018-09-02T20:32:18.681Z,4.60
2018-09-02T20:34:47.883Z,4.33
2018-09-02T20:37:16.640Z,4.77
2018-09-02T20:39:45.430Z,5.10
2018-09-02T20:42:14.245Z,4.20
2018-09-02T20:44:43.010Z,3.70
2018-09-02T20:47:11.767Z,4.53
2018-09-02T20:49:40.566Z,4.10
2018-09-02T20:52:09.685Z,4.47
2018-09-02T20:54:38.529Z,4.30
2018-09-02T20:57:07.321Z,3.77
2018-09-02T20:59:36.197Z,4.90
2018-09-02T21:02:04.999Z,4.50
2018-09-02T21:04:33.915Z,4.20
2018-09-02T21:07:02.744Z,5.10
2018-09-02T21:09:31.573Z,4.40
2018-09-02T21:12:00.456Z,4.57
2018-09-02T21:14:29.396Z,5.00
2018-09-02T21:16:58.182Z,4.67
2018-09-02T21:19:26.985Z,4.70
2018-09-02T21:21:55.833Z,4.37
2018-09-02T21:24:24.605Z,4.67
2018-09-02T21:26:53.387Z,4.97
2018-09-02T21:29:22.317Z,5.33
2018-09-02T21:31:51.109Z,5.40
2018-09-02T21:34:19.952Z,4.50
2018-09-02T21:36:49.132Z,5.50
2018-09-02T21:39:18.026Z,5.47
2018-09-02T21:41:46.852Z,6.20
2018-09-02T21:44:15.666Z,5.10
2018-09-02T21:46:44.439Z,5.50
2018-09-02T21:49:13.284Z,5.80
2018-09-02T21:51:42.103Z,5.50
2018-09-02T21:54:10.864Z,6.63
2018-09-02T21:56:39.721Z,6.00
2018-09-02T21:59:08.492Z,5.90
2018-09-02T22:01:37.332Z,5.90
2018-09-02T22:04:06.289Z,6.33
2018-09-02T22:06:35.054Z,6.83
2018-09-02T22:09:08.193Z,6.43
2018-09-02T22:11:36.973Z,6.83
2018-09-02T22:14:05.768Z,7.40
2018-09-02T22:16:34.823Z,7.03
2018-09-02T22:19:03.592Z,6.97
2018-09-02T22:21:32.379Z,8.20
2018-09-02T22:24:01.197Z,7.83
2018-09-02T22:26:30.370Z,7.23
2018-09-02T22:28:59.246Z,8.67
2018-09-02T22:31:28.104Z,8.43
2018-09-02T22:33:58.681Z,7.50
2018-09-02T22:36:27.462Z,8.40
2018-09-02T22:38:56.227Z,8.50
2018-09-02T22:41:25.140Z,9.30
2018-09-02T22:43:54.061Z,8.57
2018-09-02T22:46:22.819Z,8.27
2018-09-02T22:48:52.007Z,9.07
2018-09-02T22:51:20.846Z,9.07
2018-09-02T22:53:49.656Z,9.03
2018-09-02T22:56:18.464Z,8.43
2018-09-02T22:58:47.249Z,10.20
2018-09-02T23:01:16.066Z,8.73
2018-09-02T23:03:45.115Z,8.80
2018-09-02T23:06:13.929Z,9.10
2018-09-02T23:08:42.720Z,8.10
2018-09-02T23:11:11.919Z,9.33
2018-09-02T23:13:40.722Z,9.90
2018-09-02T23:16:09.535Z,9.30
2018-09-02T23:18:40.877Z,9.10
2018-09-02T23:21:11.734Z,9.33
2018-09-02T23:23:42.624Z,9.20
2018-09-02T23:26:13.132Z,9.57
2018-09-02T23:28:41.975Z,10.03
2018-09-02T23:31:10.822Z,9.43
2018-09-02T23:33:39.641Z,9.43
2018-09-02T23:36:08.471Z,10.40
2018-09-02T23:38:37.270Z,10.13
2018-09-02T23:41:06.325Z,9.80
2018-09-02T23:43:35.136Z,8.37
2018-09-02T23:46:04.262Z,8.83
2018-09-02T23:48:33.025Z,9.53
2018-09-02T23:51:01.811Z,10.13
2018-09-02T23:53:30.612Z,9.67
2018-09-02T23:55:59.779Z,9.60
2018-09-02T23:58:28.560Z,9.00
